Time;durP1;ratioP1;P1;durP2;ratioP2;P2;SDS_P1;SDS_P2;PMS_P1;PMS_P2;Temp;Humidity;BMP_temperature;BMP_pressure;BME280_temperature;BME280_humidity;BME280_pressure;Samples;Min_cycle;Max_cycle;Signal;HPM_P1;HPM_P2
2023/01/25 00:00:15;;;;;;;3.70;2.88;;;;;;;2.97;67.57;103043.41;4990066;28;20031;-79
2023/01/25 00:02:41;;;;;;;2.88;2.58;;;;;;;2.96;67.05;103035.72;4973520;28;20022;-78
2023/01/25 00:05:06;;;;;;;6.15;3.17;;;;;;;2.99;67.24;103051.13;4973181;28;20058;-78
2023/01/25 00:07:32;;;;;;;3.50;1.92;;;;;;;2.91;66.86;103043.28;4989251;28;20062;-78
2023/01/25 00:09:58;;;;;;;3.03;2.33;;;;;;;2.94;67.34;103056.13;4989836;28;20041;-78
2023/01/25 00:12:23;;;;;;;4.78;2.50;;;;;;;2.92;67.22;103039.03;4989600;28;20023;-79
2023/01/25 00:14:48;;;;;;;7.90;3.25;;;;;;;2.84;67.29;103042.28;4972905;28;20516;-78
2023/01/25 00:17:14;;;;;;;3.72;2.70;;;;;;;2.94;67.98;103048.44;4973083;28;20552;-78
2023/01/25 00:19:39;;;;;;;8.40;2.58;;;;;;;2.90;67.43;103026.22;4989605;28;20042;-79
2023/01/25 00:22:05;;;;;;;1.38;1.27;;;;;;;2.95;67.64;103039.97;4956764;28;20097;-79
2023/01/25 00:24:30;;;;;;;2.85;1.90;;;;;;;2.87;68.18;103046.63;4989266;28;20073;-78
2023/01/25 00:26:56;;;;;;;5.88;2.28;;;;;;;2.79;68.38;103032.78;4974277;28;20037;-79
2023/01/25 00:29:21;;;;;;;6.35;2.45;;;;;;;2.54;68.08;102978.56;4989206;28;20070;-79
2023/01/25 00:31:56;;;;;;;5.30;3.03;;;;;;;3.01;67.98;103055.44;4973920;28;20085;-78
2023/01/25 00:34:24;;;;;;;3.50;2.35;;;;;;;2.95;68.42;103052.75;4974107;28;20105;-78
2023/01/25 00:36:56;;;;;;;4.60;2.53;;;;;;;2.88;69.01;103045.78;4973553;28;20030;-78
2023/01/25 00:39:22;;;;;;;4.45;1.80;;;;;;;2.84;68.96;103020.97;4972784;28;20027;-78
2023/01/25 00:41:47;;;;;;;6.93;2.58;;;;;;;2.94;68.85;103040.78;4988992;28;20038;-80
2023/01/25 00:44:13;;;;;;;5.72;2.72;;;;;;;2.98;68.84;103037.47;4987902;28;20491;-78
2023/01/25 00:46:38;;;;;;;3.28;2.35;;;;;;;2.86;68.40;103025.28;4972405;28;20062;-78
2023/01/25 00:49:04;;;;;;;3.83;2.25;;;;;;;2.98;68.38;103028.94;4956512;28;20027;-78
2023/01/25 00:51:29;;;;;;;4.28;3.42;;;;;;;3.02;68.86;103043.50;4972201;28;20039;-79
2023/01/25 00:53:55;;;;;;;3.53;1.35;;;;;;;2.68;68.11;102983.13;4972153;28;20506;-79
2023/01/25 00:56:20;;;;;;;2.78;2.35;;;;;;;2.97;68.66;103035.75;4973822;28;20035;-78
2023/01/25 00:58:46;;;;;;;4.80;3.10;;;;;;;2.85;68.26;103027.78;4956380;28;20026;-79
2023/01/25 01:01:11;;;;;;;5.13;3.17;;;;;;;2.94;68.77;103037.34;4972275;28;20070;-78
2023/01/25 01:03:37;;;;;;;4.28;2.13;;;;;;;3.01;68.31;103034.97;4987710;28;20142;-78
2023/01/25 01:06:07;;;;;;;4.68;3.00;;;;;;;2.96;68.29;103038.28;4987922;28;20033;-78
2023/01/25 01:08:33;;;;;;;3.38;2.30;;;;;;;2.99;68.54;103036.63;4972106;28;20999;-78
2023/01/25 01:11:00;;;;;;;3.40;2.63;;;;;;;2.99;68.50;103036.63;4988426;28;20057;-79
2023/01/25 01:13:26;;;;;;;2.70;1.63;;;;;;;2.90;68.76;103023.66;4971961;28;20023;-78
2023/01/25 01:15:52;;;;;;;8.35;3.28;;;;;;;2.92;68.62;103039.88;4988247;28;20090;-78
2023/01/25 01:18:17;;;;;;;6.40;3.20;;;;;;;2.86;68.89;103032.97;4988309;28;20034;-78
2023/01/25 01:20:50;;;;;;;8.57;3.08;;;;;;;2.74;69.19;102998.59;4955728;28;20098;-78
2023/01/25 01:23:15;;;;;;;3.40;2.67;;;;;;;2.72;69.49;103010.47;4972021;28;20029;-79
2023/01/25 01:25:41;;;;;;;5.70;3.45;;;;;;;2.91;70.00;103037.31;4972093;28;20054;-79
2023/01/25 01:28:06;;;;;;;8.40;3.88;;;;;;;2.86;69.04;103027.00;4988204;28;20042;-78
2023/01/25 01:30:32;;;;;;;2.88;1.42;;;;;;;2.86;69.47;103030.41;4971672;28;20027;-79
2023/01/25 01:32:57;;;;;;;5.38;3.35;;;;;;;2.91;69.85;103039.84;4971909;28;20066;-78
2023/01/25 01:35:23;;;;;;;2.35;1.73;;;;;;;2.85;69.26;103020.13;4971332;28;20033;-78
2023/01/25 01:37:48;;;;;;;6.55;3.47;;;;;;;2.81;69.49;103018.34;4987710;28;20034;-79
2023/01/25 01:40:14;;;;;;;2.45;1.20;;;;;;;2.86;69.47;103020.19;4955603;28;20031;-78
2023/01/25 01:42:57;;;;;;;3.67;2.83;;;;;;;2.87;69.69;103026.16;4971543;28;20062;-79
2023/01/25 01:45:48;;;;;;;2.78;1.80;;;;;;;2.94;69.40;103028.00;4971760;28;20030;-78
2023/01/25 01:48:32;;;;;;;7.85;2.80;;;;;;;2.92;69.88;103028.78;4972207;28;20417;-78
2023/01/25 01:51:11;;;;;;;7.28;3.28;;;;;;;2.88;69.71;103012.53;4971514;28;20022;-79
2023/01/25 01:53:37;;;;;;;2.88;2.10;;;;;;;3.00;69.02;103022.16;4971272;28;20034;-78
2023/01/25 01:56:04;;;;;;;4.22;1.48;;;;;;;2.77;69.00;102983.34;4971447;28;20034;-78
2023/01/25 01:58:30;;;;;;;3.92;2.13;;;;;;;2.81;70.10;103006.44;4971437;28;20563;-78
2023/01/25 02:00:55;;;;;;;4.45;1.83;;;;;;;2.86;70.02;103009.97;4955337;28;20031;-78
2023/01/25 02:03:21;;;;;;;3.75;2.22;;;;;;;2.94;69.99;103015.19;4971012;28;20413;-78
2023/01/25 02:06:00;;;;;;;3.35;2.60;;;;;;;2.80;70.75;103006.41;4970974;28;20062;-79
2023/01/25 02:08:26;;;;;;;4.13;2.35;;;;;;;2.73;70.64;102990.06;4955108;28;20030;-78
2023/01/25 02:10:51;;;;;;;5.25;3.38;;;;;;;2.86;70.83;103003.97;4987436;28;20027;-79
2023/01/25 02:13:17;;;;;;;3.25;2.92;;;;;;;2.72;70.92;102990.03;4971165;28;20031;-78
2023/01/25 02:15:48;;;;;;;1.63;1.52;;;;;;;2.87;70.80;103003.16;4987121;28;20022;-80
2023/01/25 02:18:14;;;;;;;4.93;1.90;;;;;;;2.66;70.34;102962.66;4970439;28;20723;-78
2023/01/25 02:20:41;;;;;;;2.60;1.92;;;;;;;2.89;70.25;103004.03;4987296;28;20033;-79
2023/01/25 02:23:26;;;;;;;4.50;2.58;;;;;;;2.92;70.48;102995.56;4987231;28;20037;-78
2023/01/25 02:25:52;;;;;;;4.25;2.63;;;;;;;2.78;69.90;102970.59;4986075;28;20117;-78
2023/01/25 02:28:31;;;;;;;7.00;3.05;;;;;;;2.88;70.63;103003.19;4970762;28;20110;-79
2023/01/25 02:30:57;;;;;;;4.88;3.58;;;;;;;2.74;70.50;102967.91;4986297;28;20057;-78
2023/01/25 02:33:23;;;;;;;4.80;3.03;;;;;;;2.75;70.85;102979.84;4954396;28;20027;-78
2023/01/25 02:35:55;;;;;;;3.88;2.80;;;;;;;2.78;70.75;102998.69;4986613;28;20409;-78
2023/01/25 02:38:20;;;;;;;3.42;2.53;;;;;;;2.73;71.12;102978.97;4970149;28;20035;-79
2023/01/25 02:40:56;;;;;;;3.42;3.00;;;;;;;2.87;70.59;102995.47;4987025;28;20030;-78
2023/01/25 02:43:22;;;;;;;4.32;3.53;;;;;;;2.69;71.32;102980.63;4986680;28;20037;-78
2023/01/25 02:45:49;;;;;;;12.57;3.22;;;;;;;2.67;71.62;102976.31;4986757;28;20035;-78
2023/01/25 02:48:15;;;;;;;4.10;1.67;;;;;;;2.78;71.69;102992.72;4970160;28;20030;-78
2023/01/25 02:50:40;;;;;;;3.72;2.45;;;;;;;2.82;71.45;102986.84;4954576;28;20062;-78
2023/01/25 02:53:06;;;;;;;4.45;2.97;;;;;;;2.78;71.49;102972.28;4986598;28;20525;-78
2023/01/25 02:55:31;;;;;;;7.93;2.60;;;;;;;2.79;71.24;102979.13;4986831;28;20050;-79
2023/01/25 02:57:57;;;;;;;2.95;1.85;;;;;;;2.51;71.63;102952.97;4970672;28;20065;-78
2023/01/25 03:00:22;;;;;;;2.85;2.20;;;;;;;2.74;71.82;102983.25;4970650;28;20031;-78
2023/01/25 03:02:48;;;;;;;2.55;2.17;;;;;;;2.70;71.50;102981.47;4969896;28;20034;-79
2023/01/25 03:05:13;;;;;;;3.40;1.83;;;;;;;2.57;71.88;102959.91;4970147;28;20510;-78
2023/01/25 03:07:39;;;;;;;8.07;3.40;;;;;;;2.71;72.22;102983.19;4971211;28;20446;-79
2023/01/25 03:10:04;;;;;;;4.68;3.42;;;;;;;2.73;71.62;102977.28;4958410;28;20031;-78
2023/01/25 03:12:30;;;;;;;6.25;2.75;;;;;;;2.64;71.25;102960.88;4990648;28;20031;-78
2023/01/25 03:14:55;;;;;;;3.88;2.38;;;;;;;2.55;70.99;102946.22;4974284;28;20051;-79
2023/01/25 03:17:21;;;;;;;4.28;2.60;;;;;;;2.62;71.22;102952.34;4974098;28;20027;-79
2023/01/25 03:19:46;;;;;;;6.85;4.90;;;;;;;2.71;71.28;102978.09;4974376;28;20030;-78
2023/01/25 03:22:12;;;;;;;5.20;3.60;;;;;;;2.82;70.78;102979.16;4990412;28;20034;-79
2023/01/25 03:24:37;;;;;;;2.53;2.03;;;;;;;2.78;70.71;102974.84;4974315;28;20062;-79
2023/01/25 03:27:17;;;;;;;7.68;2.95;;;;;;;2.85;70.70;102959.66;4958091;28;20513;-79
2023/01/25 03:29:43;;;;;;;3.40;2.90;;;;;;;2.82;70.67;102969.81;4973994;28;20038;-79
2023/01/25 03:32:09;;;;;;;6.63;3.13;;;;;;;2.73;70.50;102961.06;4973826;28;20077;-79
2023/01/25 03:34:34;;;;;;;2.35;2.15;;;;;;;2.68;70.49;102952.47;4973797;28;20026;-78
2023/01/25 03:37:00;;;;;;;5.05;3.10;;;;;;;2.75;71.04;102979.84;4973981;28;20034;-78
2023/01/25 03:39:25;;;;;;;4.50;3.28;;;;;;;2.63;71.54;102961.72;4957617;28;20038;-78
2023/01/25 03:41:51;;;;;;;5.20;2.85;;;;;;;2.62;72.51;102971.09;4975161;28;20038;-78
2023/01/25 03:44:16;;;;;;;2.80;2.60;;;;;;;2.66;71.69;102970.34;4973607;28;20042;-78
2023/01/25 03:46:42;;;;;;;5.10;3.50;;;;;;;2.68;72.06;102978.03;4957719;28;20042;-78
2023/01/25 03:49:07;;;;;;;4.10;3.20;;;;;;;2.61;70.82;102955.72;4989983;28;20080;-78
2023/01/25 03:51:33;;;;;;;7.00;3.42;;;;;;;2.71;70.77;102983.19;4989967;28;20490;-78
2023/01/25 03:53:58;;;;;;;9.25;2.33;;;;;;;2.63;70.79;102970.25;4973542;28;20039;-78
2023/01/25 03:56:24;;;;;;;9.93;3.75;;;;;;;2.62;71.21;102978.75;4957559;28;20041;-79
2023/01/25 03:58:49;;;;;;;4.38;2.75;;;;;;;2.69;70.69;102984.88;4974425;28;20039;-78
2023/01/25 04:01:15;;;;;;;3.60;3.15;;;;;;;2.67;70.31;102966.94;4989862;28;20034;-79
2023/01/25 04:03:40;;;;;;;6.22;3.47;;;;;;;2.72;70.65;102979.81;4973459;28;20073;-78
2023/01/25 04:06:06;;;;;;;11.13;3.78;;;;;;;2.67;70.36;102966.09;4973242;28;20035;-77
2023/01/25 04:08:32;;;;;;;13.55;4.03;;;;;;;2.94;71.56;102971.72;4957289;28;20058;-77
2023/01/25 04:11:04;;;;;;;4.85;3.15;;;;;;;3.03;70.32;102971.06;4973370;28;20109;-77
2023/01/25 04:13:30;;;;;;;6.05;3.13;;;;;;;2.91;69.67;102961.47;4988563;28;20523;-77
2023/01/25 04:15:56;;;;;;;5.20;3.70;;;;;;;2.72;69.11;102914.22;4973271;28;20030;-77
2023/01/25 04:18:21;;;;;;;6.45;3.67;;;;;;;3.10;69.93;102971.22;4973307;28;20034;-77
2023/01/25 04:20:53;;;;;;;4.80;2.80;;;;;;;3.20;69.22;102973.94;4955833;28;20037;-77
2023/01/25 04:23:18;;;;;;;7.28;4.32;;;;;;;3.12;69.19;102956.75;4973204;28;20023;-77
2023/01/25 04:26:00;;;;;;;3.97;2.05;;;;;;;3.00;69.01;102946.31;4973100;28;20027;-77
2023/01/25 04:28:25;;;;;;;2.42;1.83;;;;;;;3.30;69.09;102973.28;4972690;28;20150;-77
2023/01/25 04:30:52;;;;;;;5.03;2.65;;;;;;;3.32;69.35;102974.19;4989182;28;20529;-77
2023/01/25 04:33:18;;;;;;;9.27;3.85;;;;;;;3.24;69.26;102975.72;4972855;28;20512;-77
2023/01/25 04:35:43;;;;;;;14.25;5.28;;;;;;;3.03;69.96;102951.47;4989070;28;20030;-80
2023/01/25 04:38:09;;;;;;;5.00;2.83;;;;;;;2.91;70.25;102945.25;4985955;28;20118;-79
2023/01/25 04:40:34;;;;;;;6.45;3.42;;;;;;;3.06;70.60;102977.13;4969759;28;20039;-82
2023/01/25 04:43:00;;;;;;;3.13;2.67;;;;;;;2.96;70.47;102967.53;4921216;29;20082;-78
2023/01/25 04:45:25;;;;;;;6.18;4.72;;;;;;;2.75;70.59;102949.19;4969170;28;20082;-78
2023/01/25 04:48:01;;;;;;;11.30;6.90;;;;;;;2.76;70.98;102973.94;4969401;28;20110;-79
2023/01/25 04:50:27;;;;;;;8.88;5.47;;;;;;;2.78;71.10;102974.84;4968995;28;20023;-79
2023/01/25 04:52:53;;;;;;;4.70;4.07;;;;;;;2.74;71.72;102978.13;4952846;29;20610;-79
2023/01/25 04:55:18;;;;;;;12.40;4.88;;;;;;;2.62;71.66;102968.53;4954101;28;20038;-79
2023/01/25 04:57:44;;;;;;;5.82;3.47;;;;;;;2.45;71.81;102950.28;4968673;28;20038;-79
2023/01/25 05:00:10;;;;;;;9.05;6.28;;;;;;;2.31;72.48;102956.78;4952948;29;20042;-79
2023/01/25 05:02:35;;;;;;;5.90;3.90;;;;;;;2.54;72.47;102982.81;4968127;28;20094;-80
2023/01/25 05:05:01;;;;;;;5.88;3.90;;;;;;;2.42;72.61;102980.88;4952320;29;20094;-79
2023/01/25 05:07:26;;;;;;;7.05;3.88;;;;;;;2.50;72.81;102984.47;4968919;28;20548;-79
2023/01/25 05:09:52;;;;;;;18.50;4.50;;;;;;;2.51;72.66;102975.09;4952807;29;20475;-79
2023/01/25 05:12:17;;;;;;;9.13;3.53;;;;;;;2.46;72.76;102962.25;4953140;29;20042;-78
2023/01/25 05:14:43;;;;;;;13.63;5.82;;;;;;;2.50;73.32;102971.69;4951225;29;20477;-80
2023/01/25 05:17:08;;;;;;;5.03;3.28;;;;;;;2.52;73.48;102972.56;4968091;28;20028;-79
2023/01/25 05:19:34;;;;;;;8.35;5.20;;;;;;;2.57;73.25;102975.25;4952684;29;20031;-78
2023/01/25 05:22:00;;;;;;;18.45;5.38;;;;;;;2.49;73.09;102975.06;4944552;29;20083;-81
2023/01/25 05:24:30;;;;;;;5.13;3.92;;;;;;;2.48;73.13;102965.69;4940493;29;20426;-85
2023/01/25 05:27:13;;;;;;;7.80;4.13;;;;;;;2.38;73.01;102951.00;4944670;28;20085;-85
2023/01/25 05:29:40;;;;;;;5.45;3.67;;;;;;;2.37;73.16;102964.59;4951956;28;20031;-86
2023/01/25 05:32:16;;;;;;;4.95;2.70;;;;;;;2.40;73.25;102969.75;4950790;28;20058;-78
2023/01/25 05:34:42;;;;;;;4.82;3.30;;;;;;;2.34;73.60;102972.16;4949240;29;20507;-91
2023/01/25 05:37:08;;;;;;;5.50;3.55;;;;;;;2.47;73.42;102974.19;4931699;29;20046;-86
2023/01/25 05:39:34;;;;;;;6.60;3.90;;;;;;;2.47;73.19;102974.19;4946794;28;20517;-83
2023/01/25 05:41:59;;;;;;;4.63;3.90;;;;;;;2.38;73.22;102973.13;4946276;28;20066;-85
2023/01/25 05:44:25;;;;;;;6.85;4.00;;;;;;;2.39;73.73;102987.63;4933565;29;20016;-88
2023/01/25 05:46:50;;;;;;;6.50;4.00;;;;;;;2.44;73.57;102973.22;4915393;29;20484;-82
2023/01/25 05:49:16;;;;;;;9.60;4.68;;;;;;;2.43;73.50;102967.25;4931586;29;20041;-87
2023/01/25 05:51:42;;;;;;;4.82;3.83;;;;;;;2.48;73.29;102978.47;4920311;29;20562;-90
2023/01/25 05:54:10;;;;;;;10.43;6.15;;;;;;;2.31;73.46;102961.88;4964731;28;20402;-88
2023/01/25 05:56:36;;;;;;;5.85;3.38;;;;;;;2.19;73.51;102966.72;4935417;29;20070;-86
2023/01/25 05:59:01;;;;;;;4.97;3.47;;;;;;;2.26;74.06;102986.44;4927873;29;20032;-89
2023/01/25 06:01:45;;;;;;;7.07;4.28;;;;;;;2.34;73.79;102971.31;4917172;29;20558;-96
2023/01/25 06:04:13;;;;;;;7.47;5.10;;;;;;;2.39;73.32;102987.63;4928409;29;20075;-80
2023/01/25 06:06:38;;;;;;;11.00;4.82;;;;;;;2.35;73.38;102991.78;4948969;29;20055;-85
2023/01/25 06:09:04;;;;;;;8.65;3.80;;;;;;;2.34;73.46;102986.63;4941747;29;20038;-86
2023/01/25 06:11:30;;;;;;;8.02;5.40;;;;;;;2.33;73.47;102980.66;4944477;29;20028;-89
2023/01/25 06:13:55;;;;;;;6.57;4.22;;;;;;;2.36;73.15;102974.75;4946456;28;20384;-88
2023/01/25 06:16:21;;;;;;;6.20;2.78;;;;;;;2.30;73.14;102967.81;4931983;29;20499;-85
2023/01/25 06:18:46;;;;;;;4.25;3.00;;;;;;;2.45;72.62;102978.38;4929665;29;20027;-93
2023/01/25 06:21:12;;;;;;;9.00;4.38;;;;;;;2.49;72.65;102995.50;4953565;29;20090;-85
2023/01/25 06:23:37;;;;;;;5.63;3.15;;;;;;;2.44;72.93;102991.97;4947645;29;20443;-88
2023/01/25 06:26:05;;;;;;;5.28;3.13;;;;;;;2.52;72.97;102999.81;4949826;28;20035;-89
2023/01/25 06:28:31;;;;;;;4.03;3.58;;;;;;;2.48;72.99;102998.91;4932473;29;20035;-88
2023/01/25 06:31:05;;;;;;;9.35;4.00;;;;;;;2.40;73.35;102987.66;4951760;29;20893;-81
2023/01/25 06:33:31;;;;;;;5.82;4.15;;;;;;;2.28;73.38;102984.81;4950647;29;20415;-79
2023/01/25 06:36:04;;;;;;;8.18;4.47;;;;;;;2.29;73.33;102982.28;4935117;29;20035;-79
2023/01/25 06:38:30;;;;;;;7.22;4.35;;;;;;;2.36;73.46;102990.97;4934055;29;20031;-79
2023/01/25 06:41:03;;;;;;;11.05;5.15;;;;;;;2.38;73.91;102988.44;4956142;28;20511;-82
2023/01/25 06:43:30;;;;;;;7.63;3.38;;;;;;;2.49;73.40;102992.97;4936918;28;20137;-86
2023/01/25 06:46:06;;;;;;;9.23;4.20;;;;;;;2.47;73.38;102979.28;4930809;29;20030;-78
2023/01/25 06:48:32;;;;;;;10.30;4.70;;;;;;;2.36;73.22;102973.09;4919864;29;20031;-93
2023/01/25 06:51:02;;;;;;;10.73;5.60;;;;;;;2.52;72.89;102985.34;4958533;28;20030;-87
2023/01/25 06:53:29;;;;;;;8.27;6.28;;;;;;;2.48;73.21;102981.00;4925112;29;20070;-86
2023/01/25 06:56:02;;;;;;;10.00;4.63;;;;;;;2.19;72.85;102936.09;4941717;29;20082;-83
2023/01/25 06:58:28;;;;;;;7.22;4.28;;;;;;;2.41;72.73;102974.03;4945523;29;20490;-85
2023/01/25 07:00:59;;;;;;;7.75;4.68;;;;;;;2.46;73.05;102995.47;4917338;29;20024;-88
2023/01/25 07:03:24;;;;;;;7.60;4.13;;;;;;;2.44;72.92;102988.56;4938535;28;20058;-86
2023/01/25 07:05:50;;;;;;;9.32;4.57;;;;;;;2.49;72.03;102985.28;4950108;29;20106;-83
2023/01/25 07:08:16;;;;;;;11.15;5.53;;;;;;;2.44;72.25;102968.13;4931880;29;20024;-80
2023/01/25 07:10:42;;;;;;;7.20;3.67;;;;;;;2.52;72.47;102981.94;4947072;28;20046;-79
2023/01/25 07:13:07;;;;;;;5.50;3.67;;;;;;;2.38;72.16;102956.09;4945645;28;20032;-80
2023/01/25 07:15:32;;;;;;;14.05;6.13;;;;;;;2.61;72.18;102986.38;4931941;29;20578;-81
2023/01/25 07:17:58;;;;;;;13.00;4.00;;;;;;;2.63;71.56;102994.94;4946578;29;20035;-77
2023/01/25 07:20:23;;;;;;;9.40;5.45;;;;;;;2.56;71.77;102969.28;4965996;28;20035;-82
2023/01/25 07:22:49;;;;;;;5.95;3.78;;;;;;;2.61;72.14;102977.03;4950115;29;20627;-80
2023/01/25 07:25:14;;;;;;;4.13;2.60;;;;;;;2.47;72.35;102971.63;4966013;28;20031;-81
2023/01/25 07:27:40;;;;;;;6.60;4.35;;;;;;;2.64;72.03;102984.75;4966042;28;20178;-91
2023/01/25 07:30:06;;;;;;;6.07;4.50;;;;;;;2.59;71.43;102974.44;4955801;28;20040;-86
2023/01/25 07:32:33;;;;;;;16.13;5.55;;;;;;;2.65;71.28;102983.06;4939380;29;20085;-90
2023/01/25 07:34:58;;;;;;;6.38;3.83;;;;;;;2.71;70.86;102978.94;4946047;29;20042;-86
2023/01/25 07:37:26;;;;;;;5.25;3.97;;;;;;;2.75;70.96;102984.97;4941810;29;20032;-81
2023/01/25 07:39:52;;;;;;;4.10;2.97;;;;;;;2.70;70.83;102973.81;4934810;29;20094;-83
2023/01/25 07:42:17;;;;;;;7.55;5.25;;;;;;;2.57;71.12;102965.88;4946164;28;20036;-84
2023/01/25 07:44:43;;;;;;;16.02;4.90;;;;;;;2.75;71.48;102990.09;4947200;28;20058;-85
2023/01/25 07:47:08;;;;;;;6.13;4.28;;;;;;;2.63;71.39;102969.38;4940707;29;20024;-79
2023/01/25 07:49:34;;;;;;;5.88;3.65;;;;;;;2.71;70.76;102967.84;4952868;28;20046;-81
2023/01/25 07:51:59;;;;;;;6.72;3.65;;;;;;;2.85;70.25;102992.00;4929551;29;20175;-78
2023/01/25 07:54:25;;;;;;;4.95;3.17;;;;;;;2.83;70.49;102979.19;4943934;28;20031;-78
2023/01/25 07:56:50;;;;;;;9.60;5.43;;;;;;;2.92;70.46;102993.88;4954093;29;20043;-79
2023/01/25 07:59:16;;;;;;;9.07;5.22;;;;;;;2.97;70.05;102992.28;4935083;29;20031;-83
2023/01/25 08:01:41;;;;;;;7.35;4.55;;;;;;;3.01;69.35;102981.25;4965382;28;20027;-84
2023/01/25 08:04:07;;;;;;;7.22;3.53;;;;;;;2.83;69.99;102956.19;4952128;29;20094;-79
2023/01/25 08:06:37;;;;;;;5.03;3.80;;;;;;;2.97;70.21;102971.81;4951772;29;20062;-84
2023/01/25 08:09:07;;;;;;;7.70;3.95;;;;;;;3.04;70.08;102973.63;4968192;28;20672;-87
2023/01/25 08:11:33;;;;;;;13.00;4.53;;;;;;;3.10;69.44;102978.88;4959712;28;20032;-82
2023/01/25 08:14:00;;;;;;;6.00;2.20;;;;;;;3.21;67.84;102984.22;4960207;28;20066;-78
2023/01/25 08:16:26;;;;;;;37.38;22.30;;;;;;;3.07;68.20;102966.06;4966929;28;20024;-86
2023/01/25 08:18:56;;;;;;;7.63;4.68;;;;;;;3.16;68.31;102984.13;4952980;29;20038;-88
2023/01/25 08:21:28;;;;;;;4.32;2.97;;;;;;;3.12;68.04;102966.13;4968370;28;20067;-80
2023/01/25 08:23:57;;;;;;;4.00;3.22;;;;;;;3.28;68.19;102988.63;4964803;28;20046;-79
2023/01/25 08:26:22;;;;;;;3.45;1.80;;;;;;;3.05;67.68;102949.81;4967864;28;20032;-87
2023/01/25 08:28:48;;;;;;;3.30;2.72;;;;;;;3.24;67.58;102989.38;4952571;29;20482;-89
2023/01/25 08:31:15;;;;;;;4.97;2.22;;;;;;;3.34;67.81;102990.41;4950587;29;20024;-86
2023/01/25 08:33:42;;;;;;;6.22;1.70;;;;;;;3.31;67.90;102987.81;4932621;29;20043;-85
2023/01/25 08:36:08;;;;;;;6.15;3.47;;;;;;;3.33;67.90;102991.25;4950027;29;20580;-87
2023/01/25 08:38:34;;;;;;;5.28;2.88;;;;;;;3.26;68.20;102974.09;4923695;28;20063;-85
2023/01/25 08:41:06;;;;;;;6.47;3.15;;;;;;;3.47;67.32;102989.81;4937598;29;20027;-81
2023/01/25 08:43:32;;;;;;;9.48;3.88;;;;;;;3.40;67.20;102982.84;4930726;29;20079;-80
2023/01/25 08:45:57;;;;;;;6.82;2.90;;;;;;;3.31;67.38;102967.34;4933067;29;20494;-83
2023/01/25 08:48:23;;;;;;;7.18;3.95;;;;;;;3.36;67.99;102975.97;4923655;29;20039;-81
2023/01/25 08:50:48;;;;;;;4.43;3.15;;;;;;;3.35;67.29;102985.34;4917629;29;20072;-81
2023/01/25 08:53:14;;;;;;;8.02;3.92;;;;;;;3.23;67.26;102974.00;4939462;29;20094;-82
2023/01/25 08:55:41;;;;;;;7.47;3.38;;;;;;;3.22;67.47;102969.72;4933279;29;20034;-85
2023/01/25 08:58:15;;;;;;;4.63;3.47;;;;;;;3.23;67.67;102958.66;4918631;29;20040;-88
2023/01/25 09:00:41;;;;;;;7.40;3.67;;;;;;;3.45;67.75;102987.25;4933742;29;20028;-87
2023/01/25 09:03:07;;;;;;;5.80;3.67;;;;;;;3.56;67.18;102981.44;4932948;29;20027;-87
2023/01/25 09:05:33;;;;;;;4.88;3.33;;;;;;;3.65;66.39;102987.59;4931223;29;20058;-80
2023/01/25 09:08:00;;;;;;;11.93;4.93;;;;;;;3.52;67.48;102977.94;4933062;29;20031;-79
2023/01/25 09:10:25;;;;;;;3.00;2.40;;;;;;;3.64;66.71;102979.88;4937395;29;20032;-84
2023/01/25 09:12:50;;;;;;;7.15;3.67;;;;;;;3.63;66.46;102978.13;4943313;29;20042;-86
2023/01/25 09:15:16;;;;;;;6.85;3.95;;;;;;;3.57;66.73;102972.94;4932439;28;20566;-90
2023/01/25 09:17:41;;;;;;;7.00;3.13;;;;;;;3.91;73.00;102951.28;4932499;29;20032;-84
2023/01/25 09:20:08;;;;;;;7.47;3.83;;;;;;;4.31;66.34;102966.41;4931724;29;20083;-83
2023/01/25 09:22:33;;;;;;;8.40;4.35;;;;;;;4.20;66.12;102956.88;4913519;29;20119;-83
2023/01/25 09:24:59;;;;;;;7.90;4.18;;;;;;;4.17;64.94;102960.25;4924415;29;20567;-83
2023/01/25 09:27:24;;;;;;;5.55;3.30;;;;;;;4.09;64.96;102946.47;4917072;29;20024;-83
2023/01/25 09:29:50;;;;;;;7.72;6.15;;;;;;;4.10;65.75;102953.31;4933287;29;20552;-85
2023/01/25 09:32:15;;;;;;;4.57;3.33;;;;;;;4.08;65.71;102954.97;4945542;29;20559;-82
2023/01/25 09:34:41;;;;;;;6.57;3.33;;;;;;;3.84;65.81;102919.63;4946211;29;20110;-82
2023/01/25 09:37:06;;;;;;;3.90;3.25;;;;;;;3.83;65.90;102929.81;4930363;29;20027;-80
2023/01/25 09:39:32;;;;;;;7.32;4.10;;;;;;;3.93;66.18;102930.03;4921956;28;20502;-89
2023/01/25 09:42:39;;;;;;;4.53;2.95;;;;;;;4.06;65.80;102938.75;4949570;29;20118;-87
2023/01/25 09:45:16;;;;;;;6.30;3.17;;;;;;;4.03;65.89;102946.34;4942911;28;20495;-83
2023/01/25 09:47:48;;;;;;;4.47;2.42;;;;;;;3.80;65.39;102901.63;4953992;28;20043;-91
2023/01/25 09:50:16;;;;;;;3.45;2.38;;;;;;;4.04;64.87;102935.31;4948064;28;20082;-89
2023/01/25 09:52:49;;;;;;;6.47;3.78;;;;;;;4.05;65.76;102942.16;4949169;29;20031;-77
2023/01/25 09:55:16;;;;;;;6.00;3.75;;;;;;;3.85;65.00;102912.81;4961134;28;20446;-83
2023/01/25 09:57:41;;;;;;;6.32;3.30;;;;;;;3.87;65.59;102929.06;4933051;29;20118;-80
2023/01/25 10:00:17;;;;;;;5.80;3.50;;;;;;;3.93;66.19;102918.88;4947252;29;20031;-81
2023/01/25 10:03:05;;;;;;;9.02;3.80;;;;;;;4.02;66.20;102914.75;4951780;28;20450;-86
2023/01/25 10:05:36;;;;;;;6.80;4.28;;;;;;;4.02;65.93;102916.47;4936750;29;20143;-85
2023/01/25 10:08:04;;;;;;;3.50;2.55;;;;;;;4.11;65.89;102916.59;4948396;28;20042;-93
2023/01/25 10:10:48;;;;;;;3.75;3.00;;;;;;;3.94;66.11;102895.88;4949556;28;20036;-94
2023/01/25 10:13:16;;;;;;;3.10;1.95;;;;;;;3.96;65.91;102904.44;4932290;29;20122;-88
2023/01/25 10:16:11;;;;;;;3.38;2.50;;;;;;;4.01;66.01;102904.50;4932100;29;20070;-90
2023/01/25 10:18:44;;;;;;;5.60;2.58;;;;;;;4.10;65.81;102894.38;4943422;29;20122;-85
2023/01/25 10:21:21;;;;;;;;;;;;;;;4.17;65.29;102893.63;4952167;28;20118;-87
2023/01/25 10:24:27;;;;;;;7.28;2.67;;;;;;;3.97;65.31;102866.88;4964278;28;19918;-86
2023/01/25 10:26:57;;;;;;;13.90;7.65;;;;;;;3.91;66.30;102870.22;4953243;28;20038;-87
2023/01/25 10:29:26;;;;;;;6.25;3.80;;;;;;;3.96;66.19;102876.28;4915880;29;20498;-81
2023/01/25 10:31:54;;;;;;;6.03;4.15;;;;;;;3.84;66.45;102857.31;4945525;29;20031;-78
2023/01/25 10:34:21;;;;;;;2.92;2.58;;;;;;;4.01;66.36;102881.44;4927952;29;20039;-88
2023/01/25 10:36:53;;;;;;;14.05;3.08;;;;;;;3.95;66.89;102830.16;4948629;28;20106;-87
2023/01/25 10:39:18;;;;;;;4.20;2.97;;;;;;;4.28;66.37;102865.59;4918258;28;20858;-89
2023/01/25 10:41:48;;;;;;;4.80;3.10;;;;;;;4.26;65.23;102846.78;4942879;29;20110;-87
2023/01/25 10:44:25;;;;;;;10.43;4.70;;;;;;;4.11;65.16;102836.31;4930805;29;20036;-88
2023/01/25 10:47:02;;;;;;;6.20;2.90;;;;;;;3.96;65.29;102819.06;4919996;29;20049;-83
2023/01/25 10:49:43;;;;;;;10.48;2.70;;;;;;;4.06;65.84;102853.34;4953437;28;20602;-78
2023/01/25 10:52:20;;;;;;;5.10;3.00;;;;;;;4.09;65.96;102853.38;4960472;28;20028;-78
2023/01/25 10:55:15;;;;;;;3.53;2.42;;;;;;;3.96;65.92;102819.94;4940652;29;20011;-93
2023/01/25 10:57:46;;;;;;;4.18;2.90;;;;;;;4.10;66.67;102830.34;4947568;28;20422;-79
2023/01/25 11:00:38;;;;;;;3.30;2.78;;;;;;;4.12;66.82;102851.72;4956498;28;20573;-80
2023/01/25 11:03:04;;;;;;;6.05;2.92;;;;;;;3.97;65.71;102836.16;4940972;29;20050;-84
2023/01/25 11:05:35;;;;;;;9.13;3.42;;;;;;;3.59;66.15;102780.16;4948757;29;20047;-83
2023/01/25 11:08:31;;;;;;;2.45;1.88;;;;;;;4.05;66.43;102832.00;4948828;29;20023;-85
2023/01/25 11:10:56;;;;;;;4.43;2.42;;;;;;;4.00;66.58;102834.47;4939885;29;20067;-81
2023/01/25 11:13:32;;;;;;;5.60;3.72;;;;;;;4.12;66.83;102826.09;4925457;29;20027;-83
2023/01/25 11:16:03;;;;;;;3.40;2.42;;;;;;;4.12;66.66;102804.75;4947550;28;20499;-82
2023/01/25 11:18:33;;;;;;;4.60;1.95;;;;;;;4.12;66.86;102815.84;4931151;29;20079;-84
2023/01/25 11:21:15;;;;;;;5.85;4.10;;;;;;;4.22;67.91;102814.25;4937581;29;20586;-83
2023/01/25 11:23:40;;;;;;;4.35;2.75;;;;;;;4.22;67.21;102799.75;4953849;28;20040;-79
2023/01/25 11:26:16;;;;;;;1.92;1.77;;;;;;;4.19;66.23;102809.09;4945909;29;20506;-83
2023/01/25 11:28:43;;;;;;;8.27;3.35;;;;;;;4.08;66.10;102791.03;4946160;28;20087;-79
2023/01/25 11:31:13;;;;;;;3.53;3.13;;;;;;;4.08;66.69;102801.28;4942275;29;20035;-83
2023/01/25 11:33:39;;;;;;;6.13;3.28;;;;;;;4.07;66.56;102786.78;4942597;29;20055;-84
2023/01/25 11:36:04;;;;;;;10.73;4.80;;;;;;;4.14;66.24;102800.53;4950593;28;20062;-80